createdAt,value
2023-03-24T00:00:28.578Z,96439.66
2023-03-24T00:01:30.673Z,96437.25
2023-03-24T00:02:37.932Z,96427.38
2023-03-24T00:03:40.434Z,96424.91
2023-03-24T00:04:42.985Z,96426.09
2023-03-24T00:05:45.103Z,96423.13
2023-03-24T00:06:49.432Z,96425.72
2023-03-24T00:08:56.152Z,96425.28
2023-03-24T00:09:57.985Z,96426.09
2023-03-24T00:11:01.962Z,96421.88
2023-03-24T00:12:04.177Z,96423.50
2023-03-24T00:13:06.280Z,96422.47
2023-03-24T00:14:12.349Z,96412.44
2023-03-24T00:15:15.711Z,96416.88
2023-03-24T00:16:19.822Z,96406.22
2023-03-24T00:17:25.603Z,96412.88
2023-03-24T00:18:27.549Z,96411.72
2023-03-24T00:19:29.410Z,96416.19
2023-03-24T00:20:33.155Z,96407.66
2023-03-24T00:21:35.092Z,96406.22
2023-03-24T00:22:36.862Z,96408.38
2023-03-24T00:23:38.753Z,96403.31
2023-03-24T00:24:41.336Z,96405.25
2023-03-24T00:25:43.127Z,96407.22
2023-03-24T00:26:45.000Z,96406.00
2023-03-24T00:27:49.139Z,96408.63
2023-03-24T00:28:51.482Z,96403.19
2023-03-24T00:29:53.341Z,96399.16
2023-03-24T00:30:55.131Z,96399.38
2023-03-24T00:31:56.982Z,96400.78
2023-03-24T00:32:59.277Z,96399.53
2023-03-24T00:34:03.160Z,96393.72
2023-03-24T00:35:09.207Z,96388.72
2023-03-24T00:36:14.416Z,96387.13
2023-03-24T00:37:16.372Z,96392.78
2023-03-24T00:38:19.851Z,96387.56
2023-03-24T00:39:21.715Z,96386.31
2023-03-24T00:40:23.759Z,96382.72
2023-03-24T00:41:27.438Z,96380.69
2023-03-24T00:42:29.670Z,96385.91
2023-03-24T00:43:31.942Z,96391.34
2023-03-24T00:44:34.713Z,96384.75
2023-03-24T00:45:36.536Z,96385.97
2023-03-24T00:46:39.232Z,96380.97
2023-03-24T00:47:41.801Z,96388.66
2023-03-24T00:48:43.601Z,96396.34
2023-03-24T00:49:45.449Z,96389.50
2023-03-24T00:50:48.629Z,96392.34
2023-03-24T00:51:51.690Z,96386.91
2023-03-24T00:52:53.917Z,96391.34
2023-03-24T00:53:58.363Z,96391.13
2023-03-24T00:55:02.431Z,96386.31
2023-03-24T00:56:04.408Z,96384.53
2023-03-24T00:57:07.558Z,96379.31
2023-03-24T00:58:09.472Z,96383.56
2023-03-24T00:59:11.370Z,96382.78
2023-03-24T01:00:17.188Z,96376.31
2023-03-24T01:01:19.178Z,96378.50
2023-03-24T01:02:24.844Z,96370.03
2023-03-24T01:03:27.764Z,96369.56
2023-03-24T01:04:31.019Z,96374.81
2023-03-24T01:05:33.363Z,96369.66
2023-03-24T01:06:37.430Z,96371.47
2023-03-24T01:07:42.487Z,96372.47
2023-03-24T01:08:45.652Z,96373.25
2023-03-24T01:09:59.986Z,96368.88
2023-03-24T01:11:01.777Z,96356.81
2023-03-24T01:12:04.802Z,96362.25
2023-03-24T01:13:06.700Z,96358.19
2023-03-24T01:14:09.953Z,96358.75
2023-03-24T01:15:16.679Z,96364.56
2023-03-24T01:16:18.906Z,96356.31
2023-03-24T01:17:25.760Z,96354.50
2023-03-24T01:18:28.114Z,96359.94
2023-03-24T01:19:30.146Z,96357.97
2023-03-24T01:20:33.417Z,96364.84
2023-03-24T01:21:37.300Z,96354.22
2023-03-24T01:22:40.183Z,96353.53
2023-03-24T01:23:42.442Z,96358.34
2023-03-24T01:24:44.462Z,96354.72
2023-03-24T01:25:48.419Z,96360.75
2023-03-24T01:26:50.265Z,96364.34
2023-03-24T01:27:52.597Z,96356.72
2023-03-24T01:28:54.549Z,96360.16
2023-03-24T01:30:00.513Z,96359.78
2023-03-24T01:31:02.393Z,96369.28
2023-03-24T01:32:04.319Z,96354.06
2023-03-24T01:33:06.972Z,96366.69
2023-03-24T01:34:08.970Z,96359.44
2023-03-24T01:35:11.792Z,96355.25
2023-03-24T01:36:13.843Z,96365.88
2023-03-24T01:37:15.756Z,96354.41
2023-03-24T01:38:17.677Z,96351.81
2023-03-24T01:39:19.609Z,96353.03
2023-03-24T01:40:26.063Z,96359.94
2023-03-24T01:41:30.637Z,96355.28
2023-03-24T01:42:32.401Z,96355.44
2023-03-24T01:43:34.846Z,96362.03
2023-03-24T01:44:38.015Z,96359.22
2023-03-24T01:45:40.020Z,96366.25
2023-03-24T01:46:41.965Z,96355.56
2023-03-24T01:47:43.820Z,96366.38
2023-03-24T01:48:53.605Z,96355.16
2023-03-24T01:49:59.659Z,96358.34
2023-03-24T01:51:13.051Z,96353.91
2023-03-24T01:52:17.738Z,96355.53
2023-03-24T01:53:20.790Z,96349.94
2023-03-24T01:54:23.033Z,96346.16
2023-03-24T01:55:24.966Z,96348.28
2023-03-24T01:56:27.830Z,96341.06
2023-03-24T01:57:37.357Z,96338.47
2023-03-24T01:58:41.582Z,96345.72
2023-03-24T01:59:46.023Z,96347.16
2023-03-24T02:00:48.205Z,96344.56
2023-03-24T02:01:50.081Z,96341.72
2023-03-24T02:02:55.146Z,96340.50
2023-03-24T02:03:58.265Z,96336.88
2023-03-24T02:05:02.729Z,96335.06
2023-03-24T02:06:05.352Z,96336.31
2023-03-24T02:07:19.605Z,96335.72
2023-03-24T02:08:31.363Z,96329.69
2023-03-24T02:09:34.335Z,96327.31
2023-03-24T02:10:36.820Z,96332.28
2023-03-24T02:11:39.247Z,96330.06
2023-03-24T02:12:42.221Z,96326.44
2023-03-24T02:13:44.150Z,96320.78
2023-03-24T02:14:46.746Z,96321.81
2023-03-24T02:16:07.617Z,96319.03
2023-03-24T02:17:22.031Z,96315.25
2023-03-24T02:18:34.279Z,96313.09
2023-03-24T02:19:38.590Z,96320.94
2023-03-24T02:20:43.631Z,96317.50
2023-03-24T02:22:05.664Z,96317.88
2023-03-24T02:23:14.941Z,96318.47
2023-03-24T02:24:29.117Z,96315.44
2023-03-24T02:25:43.137Z,96314.84
2023-03-24T02:26:47.910Z,96317.22
2023-03-24T02:27:55.832Z,96313.03
2023-03-24T02:29:04.044Z,96316.44
2023-03-24T02:30:08.828Z,96317.22
2023-03-24T02:31:33.957Z,96315.47
2023-03-24T02:32:38.351Z,96320.50
2023-03-24T02:33:43.845Z,96313.25
2023-03-24T02:34:55.404Z,96320.94
2023-03-24T02:35:57.180Z,96309.25
2023-03-24T02:37:19.092Z,96313.59
2023-03-24T02:38:29.801Z,96309.53
2023-03-24T02:39:48.620Z,96317.16
2023-03-24T02:41:09.102Z,96314.41
2023-03-24T02:42:10.933Z,96312.66
2023-03-24T02:43:18.909Z,96314.47
2023-03-24T02:44:25.569Z,96314.09
2023-03-24T02:45:39.581Z,96311.66
2023-03-24T02:46:41.956Z,96317.66
2023-03-24T02:47:46.767Z,96313.25
2023-03-24T02:48:51.849Z,96310.41
2023-03-24T02:50:10.658Z,96311.22
2023-03-24T02:51:17.388Z,96303.25
2023-03-24T02:52:19.130Z,96300.06
2023-03-24T02:53:24.809Z,96298.81
2023-03-24T02:54:38.525Z,96301.63
2023-03-24T02:55:40.368Z,96300.06
2023-03-24T02:56:45.282Z,96295.41
2023-03-24T02:57:56.654Z,96299.41
2023-03-24T02:59:10.546Z,96296.34
2023-03-24T03:00:18.976Z,96300.41
2023-03-24T03:01:32.648Z,96295.75
2023-03-24T03:02:38.013Z,96291.94
2023-03-24T03:03:42.019Z,96294.19
2023-03-24T03:05:14.320Z,96290.03
2023-03-24T03:06:16.138Z,96285.41
2023-03-24T03:07:22.234Z,96285.84
2023-03-24T03:08:25.771Z,96284.25
2023-03-24T03:09:29.124Z,96278.44
2023-03-24T03:10:33.835Z,96279.47
2023-03-24T03:11:36.056Z,96274.84
2023-03-24T03:12:38.955Z,96278.59
2023-03-24T03:13:44.027Z,96276.56
2023-03-24T03:14:52.198Z,96274.53
2023-03-24T03:15:56.113Z,96271.69
2023-03-24T03:17:04.578Z,96265.84
2023-03-24T03:18:21.360Z,96264.13
2023-03-24T03:19:26.858Z,96262.09
2023-03-24T03:20:31.286Z,96253.03
2023-03-24T03:21:36.699Z,96253.22
2023-03-24T03:22:45.582Z,96258.44
2023-03-24T03:23:51.157Z,96257.88
2023-03-24T03:24:54.442Z,96256.63
2023-03-24T03:26:05.776Z,96258.03
2023-03-24T03:27:15.261Z,96250.78
2023-03-24T03:28:20.836Z,96256.34
2023-03-24T03:29:24.237Z,96259.31
2023-03-24T03:30:34.010Z,96255.25
2023-03-24T03:31:38.453Z,96256.03
2023-03-24T03:32:45.417Z,96262.06
2023-03-24T03:33:51.437Z,96260.03
2023-03-24T03:34:57.434Z,96253.22
2023-03-24T03:36:03.726Z,96253.78
2023-03-24T03:37:08.280Z,96250.19
2023-03-24T03:38:14.922Z,96254.59
2023-03-24T03:39:22.820Z,96249.16
2023-03-24T03:40:28.173Z,96253.16
2023-03-24T03:41:29.992Z,96249.53
2023-03-24T03:42:32.017Z,96242.94
2023-03-24T03:43:34.287Z,96244.50
2023-03-24T03:44:36.125Z,96242.13
2023-03-24T03:45:37.965Z,96232.03
2023-03-24T03:46:39.987Z,96240.13
2023-03-24T03:47:42.062Z,96246.13
2023-03-24T03:48:44.954Z,96252.78
2023-03-24T03:49:46.669Z,96254.38
2023-03-24T03:50:49.728Z,96248.16
2023-03-24T03:51:55.908Z,96247.34
2023-03-24T03:52:57.921Z,96242.94
2023-03-24T03:54:01.842Z,96244.16
2023-03-24T03:55:04.458Z,96238.50
2023-03-24T03:56:06.407Z,96248.56
2023-03-24T03:57:08.646Z,96238.13
2023-03-24T03:58:10.583Z,96239.00
2023-03-24T03:59:24.029Z,96232.44
2023-03-24T04:00:26.296Z,96227.50
2023-03-24T04:01:29.407Z,96217.75
2023-03-24T04:02:49.708Z,96220.19
2023-03-24T04:03:59.854Z,96217.66
2023-03-24T04:05:06.299Z,96211.41
2023-03-24T04:06:27.553Z,96214.41
2023-03-24T04:07:46.690Z,96210.34
2023-03-24T04:08:50.133Z,96208.19
2023-03-24T04:09:51.952Z,96201.56
2023-03-24T04:10:59.764Z,96197.97
2023-03-24T04:12:02.094Z,96195.72
2023-03-24T04:13:14.304Z,96198.09
2023-03-24T04:14:16.177Z,96196.50
2023-03-24T04:15:30.314Z,96200.69
2023-03-24T04:16:46.010Z,96198.44
2023-03-24T04:17:48.546Z,96201.22
2023-03-24T04:19:07.991Z,96208.38
2023-03-24T04:20:15.508Z,96210.97
2023-03-24T04:21:23.505Z,96209.16
2023-03-24T04:22:40.610Z,96211.19
2023-03-24T04:23:46.246Z,96208.16
2023-03-24T04:24:52.146Z,96212.13
2023-03-24T04:25:58.762Z,96212.50
2023-03-24T04:27:09.668Z,96217.72
2023-03-24T04:28:11.395Z,96209.75
2023-03-24T04:29:18.655Z,96208.16
2023-03-24T04:30:46.747Z,96205.41
2023-03-24T04:32:19.819Z,96200.84
2023-03-24T04:33:29.074Z,96199.91
2023-03-24T04:34:36.340Z,96190.84
2023-03-24T04:35:42.656Z,96193.03
2023-03-24T04:36:50.636Z,96188.00
2023-03-24T04:37:53.352Z,96185.41
2023-03-24T04:38:57.604Z,96183.81
2023-03-24T04:40:01.804Z,96185.41
2023-03-24T04:41:05.980Z,96181.78
2023-03-24T04:42:12.279Z,96177.94
2023-03-24T04:43:17.832Z,96186.13
2023-03-24T04:44:22.077Z,96183.28
2023-03-24T04:45:27.431Z,96184.88
2023-03-24T04:46:30.619Z,96181.03
2023-03-24T04:47:38.753Z,96192.63
2023-03-24T04:48:40.890Z,96185.94
2023-03-24T04:49:43.084Z,96191.16
2023-03-24T04:50:50.354Z,96186.41
2023-03-24T04:51:52.306Z,96187.41
2023-03-24T04:52:54.099Z,96188.78
2023-03-24T04:53:56.057Z,96184.38
2023-03-24T04:54:57.991Z,96180.94
2023-03-24T04:56:35.116Z,96183.91
2023-03-24T04:57:36.968Z,96172.91
2023-03-24T04:58:38.952Z,96171.31
2023-03-24T04:59:40.890Z,96179.56
2023-03-24T05:00:44.597Z,96176.84
2023-03-24T05:01:52.584Z,96174.66
2023-03-24T05:02:54.400Z,96180.47
2023-03-24T05:03:57.524Z,96173.31
2023-03-24T05:04:59.503Z,96167.06
2023-03-24T05:06:01.972Z,96170.47
2023-03-24T05:07:04.631Z,96170.47
2023-03-24T05:08:06.503Z,96172.06
2023-03-24T05:09:08.443Z,96161.72
2023-03-24T05:10:11.011Z,96162.97
2023-03-24T05:11:12.930Z,96166.34
2023-03-24T05:12:14.855Z,96164.53
2023-03-24T05:13:16.963Z,96167.34
2023-03-24T05:14:18.773Z,96158.53
2023-03-24T05:15:20.803Z,96167.03
2023-03-24T05:16:22.792Z,96171.22
2023-03-24T05:17:24.603Z,96172.00
2023-03-24T05:18:26.709Z,96165.00
2023-03-24T05:19:28.538Z,96169.19
2023-03-24T05:20:30.565Z,96164.16
2023-03-24T05:21:33.890Z,96166.78
2023-03-24T05:22:35.740Z,96169.53
2023-03-24T05:23:37.928Z,96168.88
2023-03-24T05:24:40.962Z,96168.44
2023-03-24T05:25:43.040Z,96168.19
2023-03-24T05:26:45.144Z,96169.81
2023-03-24T05:27:47.611Z,96172.22
2023-03-24T05:28:49.453Z,96168.56
2023-03-24T05:29:51.207Z,96175.16
2023-03-24T05:30:53.022Z,96172.31
2023-03-24T05:31:54.884Z,96173.69
2023-03-24T05:32:56.707Z,96175.50
2023-03-24T05:33:58.540Z,96171.06
2023-03-24T05:35:00.541Z,96183.13
2023-03-24T05:36:02.588Z,96175.97
2023-03-24T05:37:04.509Z,96177.19
2023-03-24T05:38:06.306Z,96173.22
2023-03-24T05:39:08.251Z,96174.25
2023-03-24T05:40:10.376Z,96175.03
2023-03-24T05:41:12.127Z,96176.97
2023-03-24T05:42:14.477Z,96177.75
2023-03-24T05:43:16.294Z,96169.59
2023-03-24T05:44:18.083Z,96177.19
2023-03-24T05:45:20.200Z,96171.97
2023-03-24T05:46:23.252Z,96173.22
2023-03-24T05:47:27.620Z,96171.84
2023-03-24T05:48:29.490Z,96172.28
2023-03-24T05:49:32.154Z,96171.06
2023-03-24T05:50:34.238Z,96177.19
2023-03-24T05:51:36.018Z,96172.31
2023-03-24T05:52:37.928Z,96170.75
2023-03-24T05:53:39.753Z,96172.31
2023-03-24T05:54:41.924Z,96168.72
2023-03-24T05:55:45.476Z,96168.72
2023-03-24T05:56:47.455Z,96168.72
2023-03-24T05:57:49.299Z,96171.91
2023-03-24T05:58:51.830Z,96161.47
2023-03-24T05:59:53.548Z,96160.63
2023-03-24T06:00:55.298Z,96166.44
2023-03-24T06:01:57.165Z,96153.38
2023-03-24T06:02:59.892Z,96163.19
2023-03-24T06:04:01.868Z,96160.34
2023-03-24T06:05:04.274Z,96167.72
2023-03-24T06:06:09.894Z,96161.16
2023-03-24T06:07:11.856Z,96168.19
2023-03-24T06:08:13.805Z,96170.56
2023-03-24T06:09:17.257Z,96164.19
2023-03-24T06:10:19.219Z,96169.41
2023-03-24T06:11:21.138Z,96169.19
2023-03-24T06:12:22.884Z,96168.97
2023-03-24T06:13:24.883Z,96170.34
2023-03-24T06:14:26.852Z,96175.78
2023-03-24T06:15:28.646Z,96168.75
2023-03-24T06:16:34.089Z,96171.94
2023-03-24T06:17:37.737Z,96165.34
2023-03-24T06:18:42.977Z,96170.56
2023-03-24T06:19:49.843Z,96171.59
2023-03-24T06:20:51.800Z,96172.38
2023-03-24T06:21:54.047Z,96162.72
2023-03-24T06:22:59.491Z,96163.75
2023-03-24T06:24:01.360Z,96157.97
2023-03-24T06:25:05.365Z,96158.97
2023-03-24T06:26:09.342Z,96162.16
2023-03-24T06:27:11.728Z,96161.16
2023-03-24T06:28:14.549Z,96164.31
2023-03-24T06:29:18.342Z,96165.34
2023-03-24T06:30:20.469Z,96171.47
2023-03-24T06:31:22.370Z,96164.44
2023-03-24T06:32:24.580Z,96168.19
2023-03-24T06:33:26.403Z,96160.72
2023-03-24T06:34:29.798Z,96163.91
2023-03-24T06:35:31.677Z,96156.09
2023-03-24T06:36:34.897Z,96164.13
2023-03-24T06:37:36.688Z,96164.38
2023-03-24T06:38:38.688Z,96174.34
2023-03-24T06:39:41.221Z,96169.91
2023-03-24T06:40:43.052Z,96163.47
2023-03-24T06:41:44.874Z,96168.69
2023-03-24T06:42:46.797Z,96168.91
2023-03-24T06:43:48.616Z,96170.75
2023-03-24T06:44:51.606Z,96170.16
2023-03-24T06:45:53.372Z,96164.94
2023-03-24T06:46:55.324Z,96163.47
2023-03-24T06:47:57.602Z,96164.63
2023-03-24T06:48:59.520Z,96160.53
2023-03-24T06:50:01.444Z,96163.72
2023-03-24T06:51:03.486Z,96169.16
2023-03-24T06:52:05.447Z,96156.69
2023-03-24T06:53:07.257Z,96155.69
2023-03-24T06:54:09.783Z,96162.47
2023-03-24T06:55:11.706Z,96157.81
2023-03-24T06:56:18.537Z,96163.19
2023-03-24T06:57:20.660Z,96161.72
2023-03-24T06:58:22.887Z,96158.63
2023-03-24T06:59:24.922Z,96164.22
2023-03-24T07:00:27.394Z,96165.47
2023-03-24T07:01:29.974Z,96166.03
2023-03-24T07:02:35.818Z,96168.09
2023-03-24T07:03:39.022Z,96172.84
2023-03-24T07:04:40.821Z,96182.28
2023-03-24T07:05:43.803Z,96178.63
2023-03-24T07:06:58.559Z,96180.91
2023-03-24T07:08:33.982Z,96184.09
2023-03-24T07:09:29.761Z,96181.25
2023-03-24T07:10:31.680Z,96176.38
2023-03-24T07:11:33.506Z,96181.38
2023-03-24T07:12:35.719Z,96176.72
2023-03-24T07:13:37.794Z,96177.09
2023-03-24T07:14:39.763Z,96182.06
2023-03-24T07:15:41.958Z,96183.66
2023-03-24T07:16:43.898Z,96177.88
2023-03-24T07:17:46.062Z,96188.44
2023-03-24T07:18:48.318Z,96177.97
2023-03-24T07:19:50.154Z,96181.97
2023-03-24T07:20:51.957Z,96180.72
2023-03-24T07:21:53.836Z,96180.25
2023-03-24T07:22:56.264Z,96188.44
2023-03-24T07:23:58.112Z,96183.34
2023-03-24T07:25:04.642Z,96187.31
2023-03-24T07:26:07.049Z,96185.84
2023-03-24T07:27:09.411Z,96184.97
2023-03-24T07:28:11.252Z,96188.72
2023-03-24T07:29:13.086Z,96186.66
2023-03-24T07:30:15.047Z,96187.00
2023-03-24T07:31:16.936Z,96191.75
2023-03-24T07:32:19.066Z,96189.72
2023-03-24T07:33:21.171Z,96188.22
2023-03-24T07:34:23.028Z,96183.91
2023-03-24T07:35:24.961Z,96181.31
2023-03-24T07:36:26.778Z,96189.50
2023-03-24T07:37:28.745Z,96189.03
2023-03-24T07:38:31.254Z,96191.53
2023-03-24T07:39:33.246Z,96199.47
2023-03-24T07:40:37.651Z,96186.50
2023-03-24T07:41:39.413Z,96191.81
2023-03-24T07:42:42.514Z,96200.25
2023-03-24T07:43:44.289Z,96196.38
2023-03-24T07:44:46.682Z,96198.53
2023-03-24T07:45:48.996Z,96195.69
2023-03-24T07:46:51.280Z,96191.34
2023-03-24T07:47:53.249Z,96197.50
2023-03-24T07:48:55.085Z,96195.44
2023-03-24T07:49:56.842Z,96200.66
2023-03-24T07:50:58.610Z,96196.00
2023-03-24T07:52:01.941Z,96193.59
2023-03-24T07:53:03.997Z,96195.44
2023-03-24T07:54:05.800Z,96200.19
2023-03-24T07:55:09.792Z,96192.69
2023-03-24T07:56:12.681Z,96198.81
2023-03-24T07:57:14.610Z,96189.34
2023-03-24T07:58:16.516Z,96191.97
2023-03-24T07:59:18.425Z,96194.03
2023-03-24T08:00:20.570Z,96193.00
2023-03-24T08:01:22.971Z,96202.00
2023-03-24T08:02:24.761Z,96194.22
2023-03-24T08:03:28.734Z,96189.53
2023-03-24T08:04:32.385Z,96189.09
2023-03-24T08:05:34.569Z,96191.22
2023-03-24T08:06:36.342Z,96194.88
2023-03-24T08:07:42.838Z,96194.66
2023-03-24T08:08:44.709Z,96191.78
2023-03-24T08:09:46.531Z,96193.94
2023-03-24T08:10:50.568Z,96197.47
2023-03-24T08:11:52.289Z,96192.44
2023-03-24T08:12:54.154Z,96195.41
2023-03-24T08:13:56.314Z,96194.13
2023-03-24T08:14:58.111Z,96193.66
2023-03-24T08:15:59.927Z,96193.91
2023-03-24T08:17:01.917Z,96191.63
2023-03-24T08:18:04.541Z,96191.13
2023-03-24T08:19:11.581Z,96192.72
2023-03-24T08:20:15.034Z,96189.28
2023-03-24T08:21:17.042Z,96189.06
2023-03-24T08:22:18.879Z,96180.97
2023-03-24T08:23:20.664Z,96181.31
2023-03-24T08:24:22.646Z,96183.66
2023-03-24T08:25:26.103Z,96187.66
2023-03-24T08:26:28.026Z,96185.63
2023-03-24T08:27:29.816Z,96185.94
2023-03-24T08:28:31.635Z,96184.69
2023-03-24T08:29:36.436Z,96173.72
2023-03-24T08:30:38.282Z,96173.47
2023-03-24T08:31:40.235Z,96172.44
2023-03-24T08:32:46.059Z,96171.19
2023-03-24T08:33:47.974Z,96165.41
2023-03-24T08:34:49.805Z,96164.91
2023-03-24T08:35:52.882Z,96167.28
2023-03-24T08:36:54.634Z,96161.59
2023-03-24T08:37:56.388Z,96160.06
2023-03-24T08:38:58.212Z,96159.13
2023-03-24T08:40:05.749Z,96157.34
2023-03-24T08:41:08.679Z,96159.28
2023-03-24T08:42:10.762Z,96164.03
2023-03-24T08:43:16.134Z,96153.31
2023-03-24T08:44:17.938Z,96158.88
2023-03-24T08:45:24.137Z,96152.88
2023-03-24T08:46:26.174Z,96149.53
2023-03-24T08:47:30.957Z,96155.41
2023-03-24T08:48:33.239Z,96154.22
2023-03-24T08:49:35.154Z,96149.03
2023-03-24T08:50:39.249Z,96155.38
2023-03-24T08:51:41.512Z,96152.28
2023-03-24T08:52:43.268Z,96156.47
2023-03-24T08:53:44.972Z,96154.91
2023-03-24T08:54:47.262Z,96150.69
2023-03-24T08:55:49.441Z,96151.50
2023-03-24T08:56:51.432Z,96142.03
2023-03-24T08:57:55.283Z,96146.47
2023-03-24T08:58:59.620Z,96150.44
2023-03-24T09:00:01.442Z,96147.06
2023-03-24T09:01:03.390Z,96146.38
2023-03-24T09:02:05.210Z,96147.19
2023-03-24T09:03:07.153Z,96150.69
2023-03-24T09:04:09.078Z,96148.38
2023-03-24T09:05:11.648Z,96139.22
2023-03-24T09:06:13.856Z,96145.56
2023-03-24T09:07:16.381Z,96144.28
2023-03-24T09:08:19.519Z,96145.88
2023-03-24T09:09:21.338Z,96144.03
2023-03-24T09:10:23.145Z,96134.03
2023-03-24T09:11:25.005Z,96144.28
2023-03-24T09:12:26.735Z,96133.84
2023-03-24T09:13:28.742Z,96137.00
2023-03-24T09:14:30.857Z,96140.22
2023-03-24T09:15:33.041Z,96139.44
2023-03-24T09:16:34.955Z,96120.81
2023-03-24T09:17:37.552Z,96130.81
2023-03-24T09:18:39.914Z,96129.50
2023-03-24T09:19:41.859Z,96127.19
2023-03-24T09:20:44.603Z,96125.13
2023-03-24T09:21:48.734Z,96126.44
2023-03-24T09:22:50.789Z,96128.03
2023-03-24T09:23:52.730Z,96127.81
2023-03-24T09:24:54.541Z,96125.72
2023-03-24T09:25:56.355Z,96113.91
2023-03-24T09:26:58.212Z,96119.72
2023-03-24T09:28:01.009Z,96115.78
2023-03-24T09:29:03.330Z,96116.09
2023-03-24T09:30:06.888Z,96118.47
2023-03-24T09:31:09.141Z,96113.00
2023-03-24T09:32:11.136Z,96110.38
2023-03-24T09:33:13.118Z,96115.88
2023-03-24T09:34:15.047Z,96115.41
2023-03-24T09:35:16.941Z,96112.28
2023-03-24T09:36:18.786Z,96110.44
2023-03-24T09:37:21.172Z,96104.69
2023-03-24T09:38:23.101Z,96117.06
2023-03-24T09:39:24.958Z,96107.66
2023-03-24T09:40:30.940Z,96108.25
2023-03-24T09:41:34.517Z,96105.13
2023-03-24T09:42:39.137Z,96096.47
2023-03-24T09:43:46.851Z,96090.47
2023-03-24T09:44:50.705Z,96097.34
2023-03-24T09:45:57.368Z,96091.03
2023-03-24T09:47:04.154Z,96097.09
2023-03-24T09:48:13.652Z,96098.13
2023-03-24T09:49:29.012Z,96088.41
2023-03-24T09:50:58.411Z,96088.72
2023-03-24T09:52:20.487Z,96080.81
2023-03-24T09:53:38.216Z,96086.88
2023-03-24T09:54:42.820Z,96094.81
2023-03-24T09:55:45.782Z,96089.84
2023-03-24T09:56:51.287Z,96091.72
2023-03-24T09:58:01.591Z,96090.41
2023-03-24T09:59:08.419Z,96090.19
2023-03-24T10:00:19.168Z,96080.22
2023-03-24T10:01:21.801Z,96088.41
2023-03-24T10:02:24.089Z,96090.81
2023-03-24T10:03:26.327Z,96081.38
2023-03-24T10:04:28.951Z,96080.34
2023-03-24T10:05:35.494Z,96086.16
2023-03-24T10:06:42.451Z,96083.78
2023-03-24T10:08:07.747Z,96082.22
2023-03-24T10:09:09.482Z,96080.66
2023-03-24T10:10:25.928Z,96081.75
2023-03-24T10:11:48.140Z,96079.13
2023-03-24T10:12:50.184Z,96070.41
2023-03-24T10:14:11.875Z,96073.56
2023-03-24T10:15:14.909Z,96073.56
2023-03-24T10:16:36.960Z,96068.84
2023-03-24T10:18:02.053Z,96068.88
2023-03-24T10:19:12.643Z,96076.78
2023-03-24T10:20:17.568Z,96068.38
2023-03-24T10:21:26.018Z,96068.91
2023-03-24T10:22:31.403Z,96071.81
2023-03-24T10:23:55.185Z,96070.78
2023-03-24T10:25:06.718Z,96070.56
2023-03-24T10:26:33.395Z,96062.41
2023-03-24T10:27:43.068Z,96062.66
2023-03-24T10:28:52.395Z,96064.28
2023-03-24T10:29:58.245Z,96067.97
2023-03-24T10:31:02.591Z,96066.16
2023-03-24T10:32:24.613Z,96061.16
2023-03-24T10:33:26.656Z,96068.00
2023-03-24T10:34:31.495Z,96058.50
2023-03-24T10:35:35.868Z,96064.56
2023-03-24T10:36:39.645Z,96071.66
2023-03-24T10:37:41.446Z,96069.03
2023-03-24T10:38:43.276Z,96068.75
2023-03-24T10:39:45.470Z,96075.34
2023-03-24T10:40:48.107Z,96072.41
2023-03-24T10:41:51.500Z,96072.13
2023-03-24T10:43:06.805Z,96068.44
2023-03-24T10:44:12.567Z,96081.09
2023-03-24T10:45:22.601Z,96084.28
2023-03-24T10:46:27.551Z,96075.56
2023-03-24T10:47:32.953Z,96081.34
2023-03-24T10:48:50.457Z,96085.34
2023-03-24T10:50:13.990Z,96088.22
2023-03-24T10:51:28.720Z,96089.53
2023-03-24T10:52:43.077Z,96092.22
2023-03-24T10:53:49.402Z,96091.13
2023-03-24T10:55:06.609Z,96100.31
2023-03-24T10:56:08.595Z,96095.56
2023-03-24T10:57:18.152Z,96097.63
2023-03-24T10:58:38.639Z,96094.44
2023-03-24T10:59:51.556Z,96099.41
2023-03-24T11:00:54.440Z,96095.19
2023-03-24T11:01:58.070Z,96104.16
2023-03-24T11:03:01.797Z,96101.47
2023-03-24T11:04:06.009Z,96097.75
2023-03-24T11:05:16.096Z,96090.59
2023-03-24T11:06:19.500Z,96096.34
2023-03-24T11:07:22.921Z,96092.41
2023-03-24T11:08:38.307Z,96094.47
2023-03-24T11:09:44.157Z,96092.34
2023-03-24T11:10:46.041Z,96094.16
2023-03-24T11:11:48.398Z,96092.25
2023-03-24T11:12:58.008Z,96097.00
2023-03-24T11:14:03.722Z,96098.28
2023-03-24T11:15:22.984Z,96094.75
2023-03-24T11:16:35.994Z,96093.09
2023-03-24T11:17:38.195Z,96086.41
2023-03-24T11:18:55.100Z,96087.16
2023-03-24T11:19:57.826Z,96087.09
2023-03-24T11:21:04.379Z,96085.22
2023-03-24T11:22:07.542Z,96087.03
2023-03-24T11:23:11.638Z,96081.44
2023-03-24T11:24:15.951Z,96090.69
2023-03-24T11:25:17.866Z,96077.97
2023-03-24T11:26:24.203Z,96082.19
2023-03-24T11:27:26.084Z,96084.56
2023-03-24T11:28:28.703Z,96081.13
2023-03-24T11:29:32.101Z,96083.25
2023-03-24T11:30:35.305Z,96087.53
2023-03-24T11:31:39.401Z,96091.25
2023-03-24T11:32:45.999Z,96088.09
2023-03-24T11:33:56.982Z,96095.53
2023-03-24T11:35:10.145Z,96094.00
2023-03-24T11:36:33.251Z,96099.84
2023-03-24T11:37:36.341Z,96093.78
2023-03-24T11:38:38.252Z,96099.66
2023-03-24T11:39:40.591Z,96109.72
2023-03-24T11:40:53.010Z,96106.81
2023-03-24T11:42:02.014Z,96105.81
2023-03-24T11:43:04.097Z,96102.91
2023-03-24T11:44:26.449Z,96106.91
2023-03-24T11:45:28.396Z,96114.91
2023-03-24T11:46:30.252Z,96108.28
2023-03-24T11:47:38.759Z,96108.03
2023-03-24T11:48:42.071Z,96109.66
2023-03-24T11:49:47.403Z,96106.50
2023-03-24T11:50:49.356Z,96104.16
2023-03-24T11:51:53.777Z,96101.25
2023-03-24T11:53:12.488Z,96112.38
2023-03-24T11:54:15.337Z,96111.06
2023-03-24T11:55:37.540Z,96110.28
2023-03-24T11:56:42.061Z,96116.63
2023-03-24T11:57:43.812Z,96112.41
2023-03-24T11:59:15.196Z,96117.69
2023-03-24T12:00:29.472Z,96114.81
2023-03-24T12:01:36.938Z,96116.66
2023-03-24T12:02:58.058Z,96118.50
2023-03-24T12:04:20.151Z,96116.91
2023-03-24T12:05:30.711Z,96121.41
2023-03-24T12:06:46.606Z,96118.75
2023-03-24T12:08:07.355Z,96130.13
2023-03-24T12:09:15.486Z,96134.34
2023-03-24T12:10:22.748Z,96131.19
2023-03-24T12:11:30.398Z,96126.44
2023-03-24T12:12:40.770Z,96130.94
2023-03-24T12:13:44.352Z,96132.25
2023-03-24T12:15:09.671Z,96133.59
2023-03-24T12:16:35.964Z,96140.47
2023-03-24T12:17:42.890Z,96147.06
2023-03-24T12:19:03.207Z,96145.50
2023-03-24T12:20:23.882Z,96147.38
2023-03-24T12:21:34.492Z,96146.34
2023-03-24T12:22:43.691Z,96148.97
2023-03-24T12:24:00.410Z,96149.00
2023-03-24T12:25:32.048Z,96143.19
2023-03-24T12:26:35.157Z,96159.03
2023-03-24T12:28:04.508Z,96147.44
2023-03-24T12:29:22.008Z,96149.03
2023-03-24T12:30:34.757Z,96152.97
2023-03-24T12:32:02.628Z,96145.81
2023-03-24T12:33:23.907Z,96162.75
2023-03-24T12:34:32.033Z,96164.63
2023-03-24T12:36:00.024Z,96161.72
2023-03-24T12:37:16.338Z,96165.97
2023-03-24T12:38:37.079Z,96177.09
2023-03-24T12:39:48.264Z,96164.41
2023-03-24T12:40:56.322Z,96167.59
2023-03-24T12:42:11.092Z,96166.03
2023-03-24T12:43:18.967Z,96177.13
2023-03-24T12:44:20.853Z,96171.88
2023-03-24T12:46:01.224Z,96165.28
2023-03-24T12:47:21.817Z,96162.09
2023-03-24T12:48:38.813Z,96166.88
2023-03-24T12:49:43.592Z,96166.63
2023-03-24T12:50:45.601Z,96169.53
2023-03-24T12:51:55.495Z,96170.84